createdAt,value
2022-10-29T00:00:30.078Z,3.10
2022-10-29T00:02:59.202Z,3.33
2022-10-29T00:05:28.835Z,3.30
2022-10-29T00:08:00.667Z,3.50
2022-10-29T00:10:31.213Z,2.87
2022-10-29T00:13:03.475Z,3.30
2022-10-29T00:15:42.543Z,3.13
2022-10-29T00:18:11.203Z,3.23
2022-10-29T00:20:39.854Z,3.53
2022-10-29T00:23:08.536Z,4.83
2022-10-29T00:25:37.267Z,4.20
2022-10-29T00:28:06.010Z,2.90
2022-10-29T00:30:36.444Z,3.00
2022-10-29T00:33:06.649Z,3.90
2022-10-29T00:35:35.411Z,3.07
2022-10-29T00:38:04.154Z,2.73
2022-10-29T00:40:36.890Z,3.07
2022-10-29T00:43:20.451Z,3.43
2022-10-29T00:45:54.792Z,3.37
2022-10-29T00:48:28.717Z,2.90
2022-10-29T00:51:00.106Z,3.33
2022-10-29T00:53:34.613Z,3.33
2022-10-29T00:56:04.111Z,3.53
2022-10-29T00:58:33.461Z,2.93
2022-10-29T01:01:02.590Z,3.30
2022-10-29T01:03:32.728Z,2.90
2022-10-29T01:06:03.370Z,3.20
2022-10-29T01:08:32.092Z,3.00
2022-10-29T01:11:16.210Z,3.23
2022-10-29T01:14:06.881Z,3.17
2022-10-29T01:16:58.833Z,3.17
2022-10-29T01:19:56.740Z,3.40
2022-10-29T01:22:33.309Z,3.70
2022-10-29T01:25:48.227Z,3.20
2022-10-29T01:28:36.352Z,3.37
2022-10-29T01:31:21.281Z,3.17
2022-10-29T01:34:02.470Z,3.23
2022-10-29T01:36:41.856Z,3.40
2022-10-29T01:39:23.265Z,3.77
2022-10-29T01:42:02.373Z,4.00
2022-10-29T01:44:38.521Z,3.20
2022-10-29T01:47:16.852Z,3.50
2022-10-29T01:49:51.593Z,3.67
2022-10-29T01:52:24.422Z,3.30
2022-10-29T01:54:53.435Z,3.13
2022-10-29T01:57:32.671Z,3.63
2022-10-29T02:00:07.732Z,3.10
2022-10-29T02:03:05.400Z,3.33
2022-10-29T02:05:40.346Z,3.27
2022-10-29T02:08:30.469Z,3.23
2022-10-29T02:11:10.779Z,3.33
2022-10-29T02:13:46.048Z,2.87
2022-10-29T02:16:15.759Z,3.73
2022-10-29T02:18:49.279Z,3.37
2022-10-29T02:21:19.054Z,3.73
2022-10-29T02:23:48.839Z,3.90
2022-10-29T02:26:18.029Z,3.93
2022-10-29T02:28:46.834Z,3.70
2022-10-29T02:31:15.596Z,3.47
2022-10-29T02:33:45.767Z,3.40
2022-10-29T02:36:14.496Z,3.27
2022-10-29T02:38:43.459Z,3.30
2022-10-29T02:41:12.215Z,3.50
2022-10-29T02:43:43.050Z,3.40
2022-10-29T02:46:14.549Z,4.03
2022-10-29T02:48:43.867Z,3.60
2022-10-29T02:51:14.856Z,3.53
2022-10-29T02:53:43.742Z,3.97
2022-10-29T02:56:12.944Z,3.73
2022-10-29T02:58:41.754Z,3.60
2022-10-29T03:01:10.450Z,3.10
2022-10-29T03:03:39.304Z,3.50
2022-10-29T03:06:16.298Z,4.33
2022-10-29T03:08:45.732Z,3.50
2022-10-29T03:11:15.253Z,3.70
2022-10-29T03:13:44.575Z,3.47
2022-10-29T03:16:13.307Z,4.10
2022-10-29T03:18:41.962Z,4.03
2022-10-29T03:21:10.972Z,3.20
2022-10-29T03:23:41.182Z,3.60
2022-10-29T03:26:11.966Z,3.50
2022-10-29T03:28:40.760Z,3.53
2022-10-29T03:31:09.410Z,3.67
2022-10-29T03:33:38.263Z,3.67
2022-10-29T03:36:09.047Z,3.50
2022-10-29T03:38:37.734Z,3.80
2022-10-29T03:41:10.686Z,3.37
2022-10-29T03:43:40.422Z,3.83
2022-10-29T03:46:09.396Z,3.93
2022-10-29T03:48:38.343Z,3.57
2022-10-29T03:51:08.428Z,3.90
2022-10-29T03:53:38.142Z,3.50
2022-10-29T03:56:08.753Z,3.77
2022-10-29T03:58:37.526Z,3.93
2022-10-29T04:01:09.071Z,3.50
2022-10-29T04:03:42.463Z,3.43
2022-10-29T04:06:13.688Z,4.03
2022-10-29T04:08:52.003Z,3.93
2022-10-29T04:11:22.578Z,3.73
2022-10-29T04:13:54.693Z,3.90
2022-10-29T04:16:23.496Z,4.30
2022-10-29T04:18:52.325Z,3.57
2022-10-29T04:29:49.575Z,3.77
2022-10-29T04:32:18.249Z,4.17
2022-10-29T04:34:47.472Z,4.10
2022-10-29T04:37:16.278Z,3.90
2022-10-29T04:39:45.107Z,4.33
2022-10-29T04:42:15.218Z,3.60
2022-10-29T04:44:43.884Z,3.90
2022-10-29T04:47:12.595Z,3.87
2022-10-29T04:49:41.384Z,4.30
2022-10-29T04:52:10.061Z,4.17
2022-10-29T04:54:38.859Z,4.00
2022-10-29T04:57:07.538Z,3.47
2022-10-29T04:59:37.692Z,3.73
2022-10-29T05:02:06.460Z,3.53
2022-10-29T05:04:35.211Z,3.60
2022-10-29T05:07:03.972Z,3.80
2022-10-29T05:09:32.657Z,3.87
2022-10-29T05:12:01.314Z,4.30
2022-10-29T05:14:30.008Z,3.70
2022-10-29T05:17:00.092Z,3.80
2022-10-29T05:19:28.896Z,3.90
2022-10-29T05:21:57.522Z,3.70
2022-10-29T05:24:51.796Z,3.97
2022-10-29T05:27:20.506Z,4.17
2022-10-29T05:29:49.066Z,4.23
2022-10-29T05:32:19.117Z,4.87
2022-10-29T05:34:54.086Z,4.00
2022-10-29T05:37:25.545Z,4.73
2022-10-29T05:39:54.230Z,4.20
2022-10-29T05:42:22.868Z,4.10
2022-10-29T05:44:51.595Z,3.80
2022-10-29T05:47:26.626Z,4.07
2022-10-29T05:49:55.381Z,4.40
2022-10-29T05:52:25.269Z,4.63
2022-10-29T05:54:53.851Z,4.70
2022-10-29T05:57:22.572Z,4.37
2022-10-29T05:59:51.312Z,4.50
2022-10-29T06:02:21.115Z,4.00
2022-10-29T06:04:51.692Z,4.40
2022-10-29T06:07:25.161Z,4.57
2022-10-29T06:09:53.892Z,3.87
2022-10-29T06:12:52.759Z,4.20
2022-10-29T06:15:23.037Z,3.90
2022-10-29T06:18:19.160Z,4.53
2022-10-29T06:20:49.734Z,4.83
2022-10-29T06:23:18.906Z,4.70
2022-10-29T06:25:48.404Z,5.63
2022-10-29T06:28:22.632Z,5.63
2022-10-29T06:30:52.785Z,4.83
2022-10-29T06:33:23.185Z,5.80
2022-10-29T06:35:53.334Z,7.87
2022-10-29T06:38:21.992Z,7.50
2022-10-29T06:40:54.794Z,6.10
2022-10-29T06:43:23.763Z,5.30
2022-10-29T06:45:59.080Z,4.33
2022-10-29T06:48:27.860Z,5.00
2022-10-29T06:51:00.437Z,5.23
2022-10-29T06:53:29.415Z,4.80
2022-10-29T06:56:00.207Z,4.83
2022-10-29T06:58:29.874Z,5.50
2022-10-29T07:01:01.595Z,5.80
2022-10-29T07:03:32.127Z,5.23
2022-10-29T07:06:02.388Z,5.30
2022-10-29T07:08:40.124Z,5.33
2022-10-29T07:11:10.639Z,5.60
2022-10-29T07:13:40.102Z,6.20
2022-10-29T07:16:10.198Z,5.43
2022-10-29T07:18:39.076Z,5.67
2022-10-29T07:21:10.560Z,5.77
2022-10-29T07:23:42.499Z,6.63
2022-10-29T07:26:13.779Z,6.47
2022-10-29T07:28:42.757Z,5.03
2022-10-29T07:31:11.960Z,5.93
2022-10-29T07:33:41.125Z,5.57
2022-10-29T07:36:11.715Z,5.00
2022-10-29T07:38:40.462Z,5.40
2022-10-29T07:41:09.120Z,5.70
2022-10-29T07:43:37.692Z,5.13
2022-10-29T07:46:06.724Z,5.20
2022-10-29T07:48:35.531Z,5.50
2022-10-29T07:51:04.259Z,4.73
2022-10-29T07:53:34.397Z,5.50
2022-10-29T07:56:03.090Z,5.07
2022-10-29T07:58:31.809Z,5.20
2022-10-29T08:01:01.854Z,5.57
2022-10-29T08:03:30.583Z,4.80
2022-10-29T08:05:59.568Z,4.70
2022-10-29T08:08:28.263Z,4.63
2022-10-29T08:11:03.309Z,4.57
2022-10-29T08:13:32.584Z,4.57
2022-10-29T08:16:01.849Z,4.80
2022-10-29T08:18:30.477Z,4.47
2022-10-29T08:20:59.111Z,4.80
2022-10-29T08:23:28.718Z,4.50
2022-10-29T08:25:59.622Z,4.90
2022-10-29T08:28:33.182Z,4.80
2022-10-29T08:31:04.685Z,4.47
2022-10-29T08:33:33.405Z,4.30
2022-10-29T08:36:02.106Z,4.30
2022-10-29T08:38:30.659Z,4.07
2022-10-29T08:41:28.940Z,3.97
2022-10-29T08:44:26.989Z,4.27
2022-10-29T08:47:08.007Z,5.43
2022-10-29T08:49:43.731Z,4.43
2022-10-29T08:52:20.282Z,4.37
2022-10-29T08:55:01.600Z,4.10
2022-10-29T08:57:39.306Z,5.33
2022-10-29T09:00:18.108Z,3.90
2022-10-29T09:02:46.990Z,3.87
2022-10-29T09:05:18.515Z,3.77
2022-10-29T09:08:16.077Z,4.27
2022-10-29T09:10:55.235Z,4.03
2022-10-29T09:13:45.323Z,3.90
2022-10-29T09:16:36.096Z,4.27
2022-10-29T09:19:34.122Z,3.83
2022-10-29T09:22:18.601Z,4.13
2022-10-29T09:25:04.532Z,4.27
2022-10-29T09:27:47.751Z,4.20
2022-10-29T09:30:21.280Z,3.90
2022-10-29T09:33:01.687Z,4.50
2022-10-29T09:35:40.669Z,4.43
2022-10-29T09:38:19.953Z,4.50
2022-10-29T09:40:51.617Z,4.10
2022-10-29T09:43:39.003Z,5.13
2022-10-29T09:46:22.054Z,3.93
2022-10-29T09:51:52.620Z,4.60
2022-10-29T09:54:22.765Z,3.60
2022-10-29T09:56:54.951Z,4.30
2022-10-29T09:59:33.782Z,3.83
2022-10-29T10:02:03.596Z,4.80
2022-10-29T10:04:45.998Z,3.87
2022-10-29T10:07:21.169Z,4.37
2022-10-29T10:09:57.216Z,6.07
2022-10-29T10:12:29.264Z,4.87
2022-10-29T10:15:20.393Z,5.10
2022-10-29T10:17:59.357Z,4.43
2022-10-29T10:20:39.302Z,4.43
2022-10-29T10:23:25.205Z,3.90
2022-10-29T10:26:00.282Z,4.70
2022-10-29T10:28:35.506Z,4.43
2022-10-29T10:31:16.196Z,4.37
2022-10-29T10:33:54.462Z,5.13
2022-10-29T10:36:27.680Z,4.33
2022-10-29T10:39:00.340Z,4.93
2022-10-29T10:41:35.271Z,27.67
2022-10-29T10:44:06.558Z,8.87
2022-10-29T10:46:41.702Z,4.73
2022-10-29T10:49:18.179Z,5.97
2022-10-29T10:51:52.237Z,10.33
2022-10-29T10:54:36.956Z,5.20
2022-10-29T10:57:21.979Z,4.70
2022-10-29T11:00:03.405Z,4.05
2022-10-29T11:03:10.939Z,5.67
2022-10-29T11:05:47.804Z,6.45
2022-10-29T11:08:25.538Z,4.78
2022-10-29T11:10:58.026Z,4.18
2022-10-29T11:13:32.596Z,4.53
2022-10-29T11:16:14.127Z,4.47
2022-10-29T11:18:56.412Z,5.77
2022-10-29T11:21:34.386Z,5.28
2022-10-29T11:24:12.297Z,3.97
2022-10-29T11:26:48.043Z,6.82
2022-10-29T11:29:25.944Z,4.20
2022-10-29T11:32:06.303Z,4.32
2022-10-29T11:34:51.839Z,4.85
2022-10-29T11:37:31.297Z,4.40
2022-10-29T11:40:15.767Z,4.50
2022-10-29T11:42:49.063Z,4.35
2022-10-29T11:45:32.234Z,4.15
2022-10-29T11:48:21.908Z,3.92
2022-10-29T11:51:05.511Z,3.80
2022-10-29T11:54:02.218Z,4.10
2022-10-29T11:56:52.810Z,3.72
2022-10-29T11:59:38.977Z,4.15
2022-10-29T12:02:28.324Z,3.50
2022-10-29T12:05:06.862Z,4.50
2022-10-29T12:07:59.297Z,4.63
2022-10-29T12:10:48.939Z,4.13
2022-10-29T12:13:39.498Z,4.40
2022-10-29T12:16:33.076Z,4.28
2022-10-29T12:19:29.394Z,4.10
2022-10-29T12:22:12.982Z,4.35
2022-10-29T12:25:05.514Z,4.70
2022-10-29T12:27:50.683Z,4.13
2022-10-29T12:30:24.366Z,4.45
2022-10-29T12:33:06.810Z,4.68
2022-10-29T12:35:47.196Z,4.70
2022-10-29T12:38:39.321Z,4.45
2022-10-29T12:41:16.778Z,4.75
2022-10-29T12:43:47.095Z,4.45
2022-10-29T12:46:29.881Z,4.53
2022-10-29T12:49:12.775Z,4.80
2022-10-29T12:51:51.284Z,4.47
2022-10-29T12:54:37.989Z,4.50
2022-10-29T12:57:24.411Z,4.15
2022-10-29T12:59:53.122Z,4.50
2022-10-29T13:02:45.135Z,4.35
2022-10-29T13:05:38.265Z,4.45
2022-10-29T13:08:36.380Z,5.07
2022-10-29T13:11:23.575Z,4.72
2022-10-29T13:13:58.854Z,4.78
2022-10-29T13:16:32.241Z,4.90
2022-10-29T13:19:39.803Z,4.85
2022-10-29T13:22:56.630Z,4.93
2022-10-29T13:25:49.903Z,6.57
2022-10-29T13:28:52.917Z,6.13
2022-10-29T13:31:50.469Z,5.27
2022-10-29T13:34:57.015Z,6.15
2022-10-29T13:37:56.325Z,4.90
2022-10-29T13:41:04.338Z,6.53
2022-10-29T13:43:34.676Z,7.15
2022-10-29T13:46:46.029Z,9.20
2022-10-29T13:49:21.592Z,8.68
2022-10-29T13:52:06.854Z,9.43
2022-10-29T13:54:48.126Z,10.40
2022-10-29T13:57:25.201Z,7.68
2022-10-29T14:00:02.116Z,7.90
2022-10-29T14:02:55.777Z,6.97
2022-10-29T14:05:30.129Z,7.38
2022-10-29T14:08:08.544Z,7.97
2022-10-29T14:10:47.515Z,8.02
2022-10-29T14:13:31.560Z,7.13
2022-10-29T14:16:10.300Z,8.27
2022-10-29T14:18:41.327Z,7.53
2022-10-29T14:21:18.070Z,6.97
2022-10-29T14:24:03.685Z,6.28
2022-10-29T14:26:35.124Z,7.07
2022-10-29T14:29:18.625Z,6.75
2022-10-29T14:31:48.179Z,7.90
2022-10-29T14:34:28.993Z,6.97
2022-10-29T14:37:04.626Z,7.47
2022-10-29T14:39:57.145Z,8.48
2022-10-29T14:42:33.770Z,7.40
2022-10-29T14:45:06.428Z,7.22
2022-10-29T14:47:38.836Z,7.82
2022-10-29T14:50:19.069Z,8.57
2022-10-29T14:52:53.915Z,8.48
2022-10-29T14:55:29.394Z,8.25
2022-10-29T14:58:06.777Z,8.53
2022-10-29T15:00:38.926Z,8.80
2022-10-29T15:03:09.461Z,9.63
2022-10-29T15:05:39.504Z,8.38
2022-10-29T15:08:19.195Z,9.20
2022-10-29T15:10:52.841Z,9.13
2022-10-29T15:13:35.358Z,10.02
2022-10-29T15:16:08.197Z,9.60
2022-10-29T15:18:38.941Z,12.23
2022-10-29T15:21:07.929Z,14.47
2022-10-29T15:23:44.444Z,14.63
2022-10-29T15:26:21.026Z,13.37
2022-10-29T15:28:53.761Z,13.37
2022-10-29T15:31:25.784Z,12.90
2022-10-29T15:33:57.144Z,12.03
2022-10-29T15:36:25.798Z,12.02
2022-10-29T15:39:23.095Z,10.40
2022-10-29T15:41:53.972Z,9.80
2022-10-29T15:44:40.780Z,8.33
2022-10-29T15:47:28.825Z,9.30
2022-10-29T15:49:57.522Z,8.57
2022-10-29T15:52:33.270Z,8.93
2022-10-29T15:55:04.322Z,9.70
2022-10-29T15:57:35.152Z,8.27
2022-10-29T16:00:07.581Z,13.33
2022-10-29T16:02:37.325Z,14.07
2022-10-29T16:05:07.381Z,27.53
2022-10-29T16:07:37.187Z,17.57
2022-10-29T16:10:07.194Z,28.33
2022-10-29T16:12:37.229Z,33.90
2022-10-29T16:15:06.913Z,31.47
2022-10-29T16:17:35.578Z,27.20
2022-10-29T16:20:04.427Z,33.17
2022-10-29T16:22:33.025Z,33.70
2022-10-29T16:25:01.744Z,24.13
2022-10-29T16:27:30.335Z,20.30
2022-10-29T16:30:00.373Z,13.00
2022-10-29T16:32:28.980Z,14.20
2022-10-29T16:34:58.409Z,10.00
2022-10-29T16:37:27.077Z,10.50
2022-10-29T16:39:56.260Z,11.57
2022-10-29T16:42:36.664Z,10.80
2022-10-29T16:45:13.209Z,13.13
2022-10-29T16:47:42.726Z,10.67
2022-10-29T16:50:18.301Z,11.30
2022-10-29T16:52:47.946Z,12.03
2022-10-29T16:55:17.879Z,11.77
2022-10-29T16:57:48.010Z,12.07
2022-10-29T17:00:21.488Z,12.63
2022-10-29T17:02:51.660Z,13.50
2022-10-29T17:05:21.212Z,13.40
2022-10-29T17:07:56.210Z,16.27
2022-10-29T17:10:26.473Z,16.10
2022-10-29T17:12:55.852Z,15.97
2022-10-29T17:15:26.652Z,21.73
2022-10-29T17:17:57.520Z,21.37
2022-10-29T17:20:26.786Z,18.73
2022-10-29T17:22:55.480Z,20.47
2022-10-29T17:25:24.124Z,20.23
2022-10-29T17:27:53.494Z,17.17
2022-10-29T17:30:23.011Z,16.93
2022-10-29T17:32:53.196Z,16.10
2022-10-29T17:35:21.930Z,15.00
2022-10-29T17:37:50.894Z,14.30
2022-10-29T17:40:19.537Z,16.17
2022-10-29T17:42:48.417Z,15.57
2022-10-29T17:45:20.442Z,13.50
2022-10-29T17:47:49.079Z,12.70
2022-10-29T17:50:19.271Z,12.97
2022-10-29T17:52:47.898Z,12.07
2022-10-29T17:55:17.024Z,11.63
2022-10-29T17:57:45.698Z,12.20
2022-10-29T18:00:15.818Z,10.70
2022-10-29T18:02:44.554Z,11.20
2022-10-29T18:05:13.542Z,11.43
2022-10-29T18:07:44.134Z,10.90
2022-10-29T18:10:16.876Z,14.00
2022-10-29T18:12:46.684Z,16.17
2022-10-29T18:15:15.570Z,15.97
2022-10-29T18:17:44.519Z,18.10
2022-10-29T18:20:14.468Z,22.00
2022-10-29T18:22:45.034Z,17.90
2022-10-29T18:25:14.342Z,24.47
2022-10-29T18:27:43.208Z,18.67
2022-10-29T18:30:13.337Z,19.13
2022-10-29T18:32:42.575Z,18.83
2022-10-29T18:35:12.155Z,14.80
2022-10-29T18:37:41.309Z,14.57
2022-10-29T18:40:14.421Z,17.17
2022-10-29T18:42:43.422Z,20.90
2022-10-29T18:45:12.941Z,16.13
2022-10-29T18:47:42.778Z,17.87
2022-10-29T18:50:12.127Z,13.33
2022-10-29T18:52:42.050Z,14.63
2022-10-29T18:55:12.714Z,10.27
2022-10-29T18:57:41.488Z,12.40
2022-10-29T19:00:12.150Z,14.57
2022-10-29T19:02:41.383Z,11.43
2022-10-29T19:05:10.838Z,10.57
2022-10-29T19:07:40.624Z,11.73
2022-10-29T19:10:12.065Z,15.43
2022-10-29T19:12:41.016Z,13.40
2022-10-29T19:15:10.888Z,14.70
2022-10-29T19:17:39.759Z,11.40
2022-10-29T19:20:09.387Z,11.57
2022-10-29T19:22:39.520Z,9.70
2022-10-29T19:25:48.099Z,17.07
2022-10-29T19:28:17.137Z,17.60
2022-10-29T19:30:45.939Z,14.00
2022-10-29T19:33:14.686Z,14.90
2022-10-29T19:35:43.509Z,10.97
2022-10-29T19:38:26.134Z,14.87
2022-10-29T19:41:53.282Z,17.90
2022-10-29T19:44:22.307Z,11.97
2022-10-29T19:46:51.510Z,11.03
2022-10-29T19:49:21.880Z,11.00
2022-10-29T19:54:54.924Z,11.13
2022-10-29T19:57:31.566Z,11.83
2022-10-29T20:00:00.299Z,11.30
2022-10-29T20:02:31.420Z,10.17
2022-10-29T20:05:00.176Z,10.00
2022-10-29T20:07:29.046Z,8.97
2022-10-29T20:09:58.226Z,10.77
2022-10-29T20:12:28.681Z,10.23
2022-10-29T20:14:57.845Z,9.50
2022-10-29T20:17:26.833Z,7.70
2022-10-29T20:19:55.653Z,8.17
2022-10-29T20:22:26.406Z,7.60
2022-10-29T20:24:55.159Z,7.57
2022-10-29T20:27:23.767Z,7.47
2022-10-29T20:29:54.203Z,6.83
2022-10-29T20:32:23.041Z,9.30
2022-10-29T20:34:52.315Z,7.90
2022-10-29T20:37:21.409Z,7.27
2022-10-29T20:39:50.116Z,8.30
2022-10-29T20:42:19.070Z,6.93
2022-10-29T20:44:50.383Z,6.77
2022-10-29T20:47:20.693Z,6.80
2022-10-29T20:49:49.491Z,6.90
2022-10-29T20:52:18.308Z,6.67
2022-10-29T20:54:46.948Z,7.23
2022-10-29T20:57:15.647Z,6.53
2022-10-29T20:59:44.218Z,6.83
2022-10-29T21:02:13.326Z,6.80
2022-10-29T21:04:43.439Z,6.40
2022-10-29T21:07:12.167Z,6.50
2022-10-29T21:09:40.916Z,7.67
2022-10-29T21:12:09.629Z,7.63
2022-10-29T21:14:38.281Z,7.07
2022-10-29T21:17:07.085Z,7.03
2022-10-29T21:19:35.739Z,6.00
2022-10-29T21:22:06.008Z,6.77
2022-10-29T21:24:35.619Z,6.57
2022-10-29T21:27:04.619Z,6.13
2022-10-29T21:29:33.527Z,6.00
2022-10-29T21:32:02.242Z,6.30
2022-10-29T21:34:30.842Z,6.07
2022-10-29T21:36:59.495Z,6.80
2022-10-29T21:39:29.970Z,6.00
2022-10-29T21:41:58.756Z,6.10
2022-10-29T21:44:27.410Z,6.03
2022-10-29T21:46:58.971Z,6.33
2022-10-29T21:49:27.685Z,6.40
2022-10-29T21:51:56.355Z,6.00
2022-10-29T21:54:28.256Z,6.33
2022-10-29T21:56:58.578Z,6.50
2022-10-29T21:59:27.259Z,6.03
2022-10-29T22:01:56.083Z,5.23
2022-10-29T22:04:24.865Z,5.30
2022-10-29T22:06:53.575Z,5.53
2022-10-29T22:09:22.266Z,5.00
2022-10-29T22:11:50.958Z,5.70
2022-10-29T22:14:21.010Z,5.40
2022-10-29T22:16:49.698Z,5.47
2022-10-29T22:19:20.028Z,5.87
2022-10-29T22:21:48.627Z,5.70
2022-10-29T22:24:17.406Z,5.17
2022-10-29T22:26:46.333Z,5.97
2022-10-29T22:29:15.059Z,5.67
2022-10-29T22:31:45.346Z,5.70
2022-10-29T22:34:14.062Z,5.40
2022-10-29T22:36:42.953Z,5.30
2022-10-29T22:39:12.013Z,5.40
2022-10-29T22:41:40.823Z,5.07
2022-10-29T22:44:09.620Z,5.43
2022-10-29T22:46:38.284Z,5.53
2022-10-29T22:49:08.697Z,5.90
2022-10-29T22:51:37.390Z,5.70
2022-10-29T22:54:06.775Z,5.43
2022-10-29T22:56:38.473Z,5.33
2022-10-29T22:59:08.463Z,4.83
2022-10-29T23:01:42.236Z,5.43
2022-10-29T23:04:15.804Z,6.30
2022-10-29T23:06:47.831Z,5.07
2022-10-29T23:09:16.563Z,5.33
2022-10-29T23:11:45.229Z,6.20
2022-10-29T23:14:16.772Z,5.20
2022-10-29T23:16:45.432Z,5.27
2022-10-29T23:19:15.553Z,5.90
2022-10-29T23:21:44.232Z,5.30
2022-10-29T23:24:13.273Z,6.20
2022-10-29T23:26:41.950Z,5.67
2022-10-29T23:29:10.690Z,5.03
2022-10-29T23:31:39.450Z,5.70
2022-10-29T23:34:09.065Z,5.63
2022-10-29T23:36:39.210Z,5.90
2022-10-29T23:39:07.934Z,5.03
2022-10-29T23:41:36.725Z,5.20
2022-10-29T23:44:05.585Z,5.80
2022-10-29T23:46:34.321Z,5.03
2022-10-29T23:49:02.955Z,5.27
2022-10-29T23:51:31.670Z,5.43
2022-10-29T23:54:01.952Z,5.23
2022-10-29T23:56:30.681Z,5.70
2022-10-29T23:58:59.326Z,6.00
